Time;durP1;ratioP1;P1;durP2;ratioP2;P2;SDS_P1;SDS_P2;PMS_P1;PMS_P2;Temp;Humidity;BMP_temperature;BMP_pressure;BME280_temperature;BME280_humidity;BME280_pressure;Samples;Min_cycle;Max_cycle;Signal;HPM_P1;HPM_P2
2022/04/26 03:57:34;;;;;;;6.82;4.87;;;;;;;11.50;67.79;100245.56;5605060;31;77400;-58
2022/04/26 04:00:38;;;;;;;8.05;4.87;;;;;;;11.48;66.04;100259.25;5582956;31;33481;-58
2022/04/26 04:03:40;;;;;;;7.82;5.82;;;;;;;11.61;66.06;100263.09;5593048;31;33572;-59
2022/04/26 04:06:42;;;;;;;13.07;8.10;;;;;;;11.68;67.29;100262.75;5603186;31;33623;-58
2022/04/26 04:09:46;;;;;;;10.15;8.07;;;;;;;11.48;68.98;100267.31;5602893;31;34356;-58
2022/04/26 04:12:48;;;;;;;12.80;8.15;;;;;;;11.53;69.71;100277.19;5602679;31;33694;-59
2022/04/26 04:15:51;;;;;;;10.77;8.52;;;;;;;11.64;70.98;100277.84;5602556;31;33623;-58
2022/04/26 04:22:16;;;;;;;11.63;8.82;;;;;;;11.51;70.27;100290.09;5602962;31;33784;-59
2022/04/26 04:25:18;;;;;;;11.73;8.70;;;;;;;11.45;70.57;100294.72;5602828;31;34206;-59
2022/04/26 04:28:20;;;;;;;10.27;8.40;;;;;;;11.26;71.98;100301.94;5589192;31;33498;-58
2022/04/26 04:31:23;;;;;;;11.40;7.62;;;;;;;11.37;70.66;100303.41;5582795;31;33317;-59
2022/04/26 04:34:25;;;;;;;9.65;8.05;;;;;;;11.32;70.85;100314.19;5582383;32;33647;-59
2022/04/26 04:37:27;;;;;;;9.77;8.25;;;;;;;11.52;70.36;100305.94;5582544;31;33590;-59
2022/04/26 04:40:29;;;;;;;9.57;7.50;;;;;;;11.63;69.83;100308.47;5582778;31;33751;-59
2022/04/26 04:43:32;;;;;;;11.35;7.97;;;;;;;11.37;70.62;100311.47;5582362;32;33405;-59
2022/04/26 04:46:34;;;;;;;10.82;8.63;;;;;;;11.43;70.84;100314.91;5582379;32;33596;-58
2022/04/26 04:49:36;;;;;;;11.02;8.90;;;;;;;11.45;71.41;100313.50;5582609;31;33588;-58
2022/04/26 04:52:39;;;;;;;12.05;9.43;;;;;;;11.56;71.11;100313.41;5582352;32;34326;-58
2022/04/26 04:55:41;;;;;;;11.75;9.18;;;;;;;11.75;70.53;100322.25;5581875;32;34265;-59
2022/04/26 04:58:44;;;;;;;12.57;9.20;;;;;;;11.79;70.70;100322.47;5581899;31;33933;-59
2022/04/26 05:01:46;;;;;;;11.15;9.10;;;;;;;11.78;70.83;100321.69;5571161;31;34396;-59
2022/04/26 05:04:49;;;;;;;14.68;9.40;;;;;;;11.86;70.28;100329.13;5581115;31;33727;-59
2022/04/26 05:07:52;;;;;;;9.75;8.30;;;;;;;11.91;70.80;100334.44;5567743;32;33799;-59
2022/04/26 05:10:54;;;;;;;10.20;8.68;;;;;;;11.98;69.47;100337.53;5562987;32;33132;-58
2022/04/26 05:13:56;;;;;;;10.93;8.85;;;;;;;12.05;68.86;100341.75;5556063;32;34270;-58
2022/04/26 05:16:59;;;;;;;13.82;9.73;;;;;;;12.02;69.01;100343.16;5555038;32;34311;-59
2022/04/26 05:20:01;;;;;;;10.13;8.32;;;;;;;12.15;68.74;100347.81;5555881;32;33698;-59
2022/04/26 05:26:24;;;;;;;12.35;9.13;;;;;;;12.51;67.20;100347.25;5556036;32;34272;-59
2022/04/26 05:29:26;;;;;;;13.15;9.52;;;;;;;12.70;66.46;100348.00;5560655;32;35190;-59
2022/04/26 05:32:29;;;;;;;10.63;8.07;;;;;;;12.79;65.99;100347.34;5564736;32;33677;-59
2022/04/26 05:35:31;;;;;;;11.35;8.00;;;;;;;12.88;65.85;100354.44;5566091;32;33449;-59
2022/04/26 05:38:34;;;;;;;8.70;6.03;;;;;;;13.01;65.44;100357.44;5564574;32;33632;-59
2022/04/26 05:41:36;;;;;;;8.38;6.97;;;;;;;13.08;64.56;100364.03;5567047;32;33164;-58
2022/04/26 05:44:39;;;;;;;8.05;6.55;;;;;;;13.08;64.57;100360.56;5565338;32;33593;-58
2022/04/26 05:47:42;;;;;;;10.10;6.80;;;;;;;13.48;67.34;100358.22;5567254;32;34362;-59
2022/04/26 05:50:45;;;;;;;8.10;6.65;;;;;;;13.67;63.94;100363.47;5568028;32;34294;-59
2022/04/26 05:53:47;;;;;;;9.02;6.80;;;;;;;13.63;63.43;100366.75;5568449;32;33701;-59
2022/04/26 05:56:52;;;;;;;9.35;7.22;;;;;;;13.63;64.22;100372.16;5567514;32;34257;-59
2022/04/26 05:59:54;;;;;;;9.82;6.43;;;;;;;13.68;63.24;100365.87;5562758;32;34258;-59
2022/04/26 06:02:57;;;;;;;9.75;6.70;;;;;;;13.91;65.11;100372.13;5558959;32;34219;-59
2022/04/26 06:06:00;;;;;;;8.73;6.90;;;;;;;14.07;61.21;100359.94;5568235;32;34091;-58
2022/04/26 06:09:04;;;;;;;8.73;7.00;;;;;;;14.06;60.96;100363.69;5567740;32;33206;-59
2022/04/26 06:13:53;;;;;;;8.65;6.80;;;;;;;14.92;59.94;100360.06;5577911;31;123668;-58
2022/04/26 06:16:55;;;;;;;9.57;6.87;;;;;;;14.92;59.94;100360.06;5567564;32;34068;-59
2022/04/26 06:19:58;;;;;;;10.13;6.60;;;;;;;14.31;60.46;100373.13;5582153;32;33185;-58
2022/04/26 06:23:02;;;;;;;8.50;5.87;;;;;;;14.28;61.04;100370.25;5581342;31;33281;-59
2022/04/26 06:26:04;;;;;;;8.50;6.65;;;;;;;14.53;60.77;100371.56;5579349;32;33584;-59
2022/04/26 06:29:06;;;;;;;11.10;6.30;;;;;;;14.74;57.91;100369.97;5589183;31;33577;-59
2022/04/26 06:32:09;;;;;;;7.97;6.25;;;;;;;14.83;58.21;100369.22;5598393;31;32202;-59
2022/04/26 06:35:12;;;;;;;10.00;6.20;;;;;;;14.97;61.29;100369.94;5601450;31;34555;-59
2022/04/26 06:38:16;;;;;;;7.80;6.00;;;;;;;14.92;56.11;100368.16;5591878;31;33713;-59
2022/04/26 06:41:19;;;;;;;7.03;6.03;;;;;;;14.93;57.35;100356.28;5600547;31;34296;-59
2022/04/26 06:44:21;;;;;;;8.65;6.07;;;;;;;14.89;58.58;100366.06;5601752;31;34189;-59
2022/04/26 06:47:25;;;;;;;7.45;5.62;;;;;;;14.80;58.01;100360.66;5598361;31;34269;-59
2022/04/26 06:50:27;;;;;;;6.90;5.53;;;;;;;14.75;56.65;100355.37;5595893;31;32304;-59
2022/04/26 06:53:30;;;;;;;6.97;5.35;;;;;;;14.76;57.17;100358.84;5583713;31;33414;-58
2022/04/26 06:56:35;;;;;;;8.95;4.97;;;;;;;14.82;57.65;100360.31;5587898;31;33806;-58
2022/04/26 06:59:39;;;;;;;16.62;5.30;;;;;;;15.15;63.22;100368.12;5587760;31;33740;-58
2022/04/26 07:02:42;;;;;;;9.15;4.95;;;;;;;15.47;60.47;100361.59;5587723;31;33893;-58
2022/04/26 07:05:45;;;;;;;12.05;5.57;;;;;;;15.52;60.45;100362.22;5582422;31;33614;-59
2022/04/26 07:08:48;;;;;;;7.10;4.93;;;;;;;15.80;58.70;100370.13;5601958;31;34210;-59
2022/04/26 07:11:52;;;;;;;7.72;4.97;;;;;;;15.79;54.98;100362.31;5601265;31;33241;-59
2022/04/26 07:14:54;;;;;;;5.57;4.20;;;;;;;15.75;54.41;100372.97;5583979;31;33185;-59
2022/04/26 07:17:57;;;;;;;14.82;4.85;;;;;;;15.80;58.74;100372.81;5590528;31;33706;-59
2022/04/26 07:21:00;;;;;;;5.22;3.87;;;;;;;16.13;59.25;100375.87;5585022;31;34258;-59
2022/04/26 07:24:02;;;;;;;6.80;4.07;;;;;;;15.97;53.94;100370.13;5593340;31;33622;-59
2022/04/26 07:27:05;;;;;;;4.90;3.50;;;;;;;15.99;53.98;100375.22;5569459;31;33830;-59
2022/04/26 07:30:08;;;;;;;12.60;4.95;;;;;;;15.91;55.98;100371.41;5584535;31;34235;-59
2022/04/26 07:36:30;;;;;;;5.78;3.72;;;;;;;16.02;53.61;100377.28;5583730;31;33654;-59
2022/04/26 07:39:34;;;;;;;4.15;3.20;;;;;;;16.05;53.32;100386.69;5584662;31;34349;-59
2022/04/26 07:42:38;;;;;;;5.82;3.20;;;;;;;16.03;53.94;100387.00;5577449;31;34403;-59
2022/04/26 07:45:41;;;;;;;6.75;4.28;;;;;;;16.06;53.94;100385.56;5574849;31;33643;-59
2022/04/26 07:48:44;;;;;;;9.23;3.83;;;;;;;16.16;52.20;100382.56;5575389;31;34018;-58
2022/04/26 07:51:48;;;;;;;4.62;3.60;;;;;;;16.07;53.64;100389.87;5594927;31;33597;-59
2022/04/26 07:54:50;;;;;;;5.40;3.25;;;;;;;16.04;53.86;100390.50;5574825;31;33637;-58
2022/04/26 07:57:53;;;;;;;6.43;3.53;;;;;;;16.13;54.04;100391.31;5584750;31;34012;-59
2022/04/26 08:00:55;;;;;;;3.92;3.00;;;;;;;16.01;50.16;100388.44;5584790;31;34318;-59
2022/04/26 08:03:58;;;;;;;12.10;3.60;;;;;;;15.95;52.28;100395.91;5588476;31;34319;-59
2022/04/26 08:07:00;;;;;;;15.52;4.72;;;;;;;15.91;51.41;100403.06;5586993;31;33807;-59
2022/04/26 08:10:03;;;;;;;10.30;3.80;;;;;;;16.23;60.88;100401.03;5572313;31;32258;-59
2022/04/26 08:13:05;;;;;;;13.88;6.97;;;;;;;16.67;57.96;100399.91;5574135;31;33410;-58
2022/04/26 08:16:08;;;;;;;8.00;3.00;;;;;;;16.80;51.85;100396.25;5584843;31;33988;-58
2022/04/26 08:19:11;;;;;;;3.37;2.55;;;;;;;16.62;49.65;100398.16;5575950;31;33410;-58
2022/04/26 08:22:14;;;;;;;12.00;4.05;;;;;;;16.58;48.71;100405.31;5576090;31;33718;-59
2022/04/26 08:28:37;;;;;;;4.53;1.92;;;;;;;16.90;57.84;100403.25;5572404;31;33752;-58
2022/04/26 08:31:39;;;;;;;4.15;2.10;;;;;;;16.94;46.24;100395.28;5580181;31;34336;-59
2022/04/26 08:34:41;;;;;;;9.13;6.43;;;;;;;16.76;48.31;100398.00;5575769;31;33585;-59
2022/04/26 08:37:44;;;;;;;4.65;2.10;;;;;;;16.85;48.23;100401.50;5587180;31;33726;-58
2022/04/26 08:40:46;;;;;;;5.35;2.15;;;;;;;16.71;46.55;100400.84;5586117;31;33769;-59
2022/04/26 08:43:48;;;;;;;2.90;2.03;;;;;;;16.70;44.78;100404.69;5574352;31;33607;-59
2022/04/26 08:53:35;;;;;;;6.68;2.35;;;;;;;16.66;46.30;100411.84;5586648;31;33781;-59
2022/04/26 08:56:37;;;;;;;7.97;3.15;;;;;;;16.90;46.42;100414.88;5582848;31;33725;-59
2022/04/26 08:59:51;;;;;;;5.43;3.47;;;;;;;16.98;51.37;100415.16;5568450;32;33276;-59
2022/04/26 09:03:04;;;;;;;30.08;6.47;;;;;;;17.11;46.60;100411.47;5583823;31;33219;-59
2022/04/26 09:06:10;;;;;;;12.52;4.28;;;;;;;17.13;50.80;100411.94;5581274;31;33627;-58
2022/04/26 09:09:15;;;;;;;5.43;2.50;;;;;;;17.28;54.24;100414.13;5587774;31;33666;-59
2022/04/26 09:12:18;;;;;;;9.90;2.70;;;;;;;17.36;48.07;100415.22;5585214;31;33834;-59
2022/04/26 09:15:20;;;;;;;5.28;2.80;;;;;;;17.44;49.30;100408.16;5566901;32;33694;-59
2022/04/26 09:18:30;;;;;;;4.57;2.60;;;;;;;17.61;48.12;100406.19;5568403;32;33496;-59
2022/04/26 09:21:34;;;;;;;3.40;2.60;;;;;;;17.47;44.75;100408.31;5574169;31;33597;-59
2022/04/26 09:24:54;;;;;;;12.63;3.78;;;;;;;17.44;46.13;100402.75;5575802;31;33476;-59
2022/04/26 09:28:00;;;;;;;3.00;2.33;;;;;;;17.37;45.99;100406.75;5567517;32;33805;-58
2022/04/26 09:31:21;;;;;;;4.43;2.75;;;;;;;17.43;45.27;100404.66;5568273;31;34389;-59
2022/04/26 09:34:38;;;;;;;6.75;3.35;;;;;;;17.60;47.37;100407.28;5580409;31;34094;-59
2022/04/26 09:37:43;;;;;;;3.47;2.20;;;;;;;17.79;52.72;100409.63;5577038;31;34286;-59
2022/04/26 09:40:47;;;;;;;4.17;2.33;;;;;;;17.86;46.39;100409.09;5568167;32;34210;-58
2022/04/26 09:44:07;;;;;;;6.85;2.30;;;;;;;17.91;46.98;100410.81;5568306;32;34226;-59
2022/04/26 09:47:09;;;;;;;3.90;2.40;;;;;;;17.91;44.14;100406.19;5571875;31;33700;-59
2022/04/26 09:50:14;;;;;;;3.33;2.30;;;;;;;18.09;46.18;100401.47;5567607;31;33228;-59
2022/04/26 09:53:16;;;;;;;7.45;2.75;;;;;;;18.11;44.58;100392.97;5566211;32;33726;-59
2022/04/26 09:56:20;;;;;;;2.45;2.00;;;;;;;18.21;50.60;100395.28;5570596;31;34356;-59
2022/04/26 09:59:38;;;;;;;6.60;2.42;;;;;;;18.16;45.48;100390.88;5569009;31;33630;-58
2022/04/26 10:02:55;;;;;;;3.80;2.00;;;;;;;18.11;45.81;100388.34;5572112;31;33472;-58
2022/04/26 10:06:00;;;;;;;3.97;2.22;;;;;;;18.23;47.81;100390.34;5567145;31;33483;-59
2022/04/26 10:09:04;;;;;;;2.53;1.80;;;;;;;18.24;48.78;100381.84;5566804;31;33684;-58
2022/04/26 10:12:08;;;;;;;5.20;2.03;;;;;;;18.32;44.25;100385.66;5566606;32;33808;-59
2022/04/26 10:15:10;;;;;;;4.32;1.80;;;;;;;18.41;44.01;100383.66;5567022;32;34438;-59
2022/04/26 10:18:30;;;;;;;3.62;1.80;;;;;;;18.23;41.65;100377.56;5571826;31;33649;-58
2022/04/26 10:21:35;;;;;;;3.95;1.90;;;;;;;18.18;38.87;100379.69;5575658;31;33156;-59
2022/04/26 10:24:42;;;;;;;2.03;1.73;;;;;;;18.06;39.55;100375.00;5579750;31;33301;-58
2022/04/26 10:27:46;;;;;;;4.40;2.00;;;;;;;18.13;38.66;100371.75;5582921;31;33615;-59
2022/04/26 10:30:56;;;;;;;4.15;2.03;;;;;;;18.21;40.84;100370.88;5584313;31;34337;-59
2022/04/26 10:33:59;;;;;;;4.95;2.45;;;;;;;18.22;39.07;100377.91;5576055;31;33430;-58
2022/04/26 10:37:08;;;;;;;4.12;2.17;;;;;;;18.17;44.07;100368.03;5566012;31;34375;-58
2022/04/26 10:40:12;;;;;;;5.68;2.10;;;;;;;18.23;40.45;100368.63;5578080;31;33704;-59
2022/04/26 10:43:15;;;;;;;3.92;2.55;;;;;;;18.17;40.19;100367.25;5574272;31;33719;-58
2022/04/26 10:46:17;;;;;;;4.22;2.40;;;;;;;18.28;42.24;100368.44;5566303;31;33696;-58
2022/04/26 10:49:25;;;;;;;5.78;2.12;;;;;;;18.28;41.43;100368.44;5567608;31;33196;-59
2022/04/26 10:52:27;;;;;;;5.97;2.58;;;;;;;18.30;40.79;100375.09;5570545;31;34050;-59
2022/04/26 10:55:30;;;;;;;3.55;2.47;;;;;;;18.32;40.97;100363.94;5570806;31;33681;-58
2022/04/26 10:58:32;;;;;;;26.50;3.45;;;;;;;18.28;43.14;100365.75;5572705;31;34314;-58
2022/04/26 11:01:34;;;;;;;5.28;2.15;;;;;;;18.33;43.18;100359.31;5572350;31;33677;-59
2022/04/26 11:04:37;;;;;;;3.42;2.35;;;;;;;18.36;41.87;100370.28;5581369;31;33715;-59
2022/04/26 11:07:41;;;;;;;2.80;2.37;;;;;;;18.44;41.89;100371.31;5579342;31;34394;-58
2022/04/26 11:11:07;;;;;;;2.97;2.62;;;;;;;18.47;41.68;100365.22;5578717;31;33630;-59
2022/04/26 11:14:09;;;;;;;4.50;2.50;;;;;;;18.53;42.82;100369.34;5583338;31;33486;-59
2022/04/26 11:17:15;;;;;;;3.72;2.70;;;;;;;18.54;42.44;100363.59;5589146;31;33602;-59
2022/04/26 11:20:20;;;;;;;5.07;2.42;;;;;;;18.62;42.63;100361.91;5573180;31;34432;-59
2022/04/26 11:30:36;;;;;;;6.07;2.90;;;;;;;18.67;44.18;100377.97;5583072;31;33765;-59
2022/04/26 11:33:48;;;;;;;5.35;3.33;;;;;;;18.61;42.21;100371.19;5566753;31;34314;-58
2022/04/26 11:36:53;;;;;;;4.85;2.92;;;;;;;18.67;43.88;100360.88;5567024;31;34034;-58
2022/04/26 11:39:55;;;;;;;6.12;2.90;;;;;;;18.70;42.35;100366.44;5583168;31;33775;-58
2022/04/26 11:43:12;;;;;;;4.12;2.97;;;;;;;18.75;44.20;100358.13;5568350;32;34021;-58
2022/04/26 11:46:14;;;;;;;5.12;2.85;;;;;;;18.77;42.96;100364.03;5571132;31;33622;-58
2022/04/26 11:49:16;;;;;;;3.55;2.85;;;;;;;18.88;44.34;100363.59;5577298;31;33655;-59
2022/04/26 11:52:23;;;;;;;5.87;3.47;;;;;;;18.99;43.64;100362.81;5577796;31;33854;-58
2022/04/26 11:55:32;;;;;;;4.07;2.83;;;;;;;19.03;45.17;100357.50;5579354;31;33335;-58
2022/04/26 11:58:38;;;;;;;6.87;2.72;;;;;;;19.07;44.47;100355.69;5574030;31;32325;-59
2022/04/26 12:01:41;;;;;;;3.28;2.92;;;;;;;19.14;45.46;100350.50;5574933;31;33747;-59
2022/04/26 12:04:44;;;;;;;4.55;2.78;;;;;;;19.17;42.13;100355.28;5567012;31;34454;-58
2022/04/26 12:07:47;;;;;;;3.55;2.87;;;;;;;19.12;43.41;100350.03;5568874;31;34550;-58
2022/04/26 12:10:50;;;;;;;3.87;2.72;;;;;;;19.14;42.76;100355.94;5568693;31;34462;-58
2022/04/26 12:14:13;;;;;;;5.62;2.83;;;;;;;19.11;43.03;100348.47;5582084;31;34865;-59
2022/04/26 12:17:22;;;;;;;6.93;2.47;;;;;;;19.09;45.36;100348.00;5587386;31;33301;-59
2022/04/26 12:20:29;;;;;;;3.90;2.92;;;;;;;19.05;43.61;100354.47;5587654;31;33386;-58
2022/04/26 12:23:32;;;;;;;3.80;2.90;;;;;;;19.04;42.02;100340.09;5586031;31;34366;-58
2022/04/26 12:26:34;;;;;;;6.97;3.08;;;;;;;19.11;43.99;100345.75;5581302;31;33861;-58
2022/04/26 12:29:36;;;;;;;5.70;3.20;;;;;;;19.28;44.13;100336.59;5568710;32;33625;-58
2022/04/26 12:32:43;;;;;;;4.53;2.53;;;;;;;19.35;44.49;100327.88;5586385;31;33628;-59
2022/04/26 12:35:58;;;;;;;;;;;;;;;19.53;43.52;100329.19;5587991;31;33616;-59
2022/04/26 12:39:00;;;;;;;;;;;;;;;19.48;42.63;100326.72;5588112;31;34049;-58
2022/04/26 12:42:03;;;;;;;5.25;3.00;;;;;;;19.43;40.88;100322.28;5586725;31;34066;-59
2022/04/26 12:45:12;;;;;;;6.07;2.95;;;;;;;19.35;41.01;100323.22;5587867;31;34246;-58
2022/04/26 12:51:36;;;;;;;3.10;2.47;;;;;;;19.42;43.99;100309.06;5588148;31;34206;-58
2022/04/26 12:54:41;;;;;;;3.60;2.70;;;;;;;19.41;42.50;100299.31;5587792;31;34123;-59
2022/04/26 12:57:47;;;;;;;3.17;2.20;;;;;;;19.48;44.52;100311.19;5588423;31;33644;-58
2022/04/26 13:00:53;;;;;;;3.87;2.40;;;;;;;19.45;40.34;100314.59;5588380;31;34000;-58
2022/04/26 13:03:57;;;;;;;4.60;3.15;;;;;;;19.52;42.00;100308.59;5588529;31;33666;-58
2022/04/26 13:06:59;;;;;;;6.47;3.35;;;;;;;19.55;40.65;100307.91;5587883;31;33340;-59
2022/04/26 13:10:09;;;;;;;6.03;2.87;;;;;;;19.46;39.75;100302.59;5587931;31;33670;-58
2022/04/26 13:13:12;;;;;;;7.15;3.65;;;;;;;19.40;40.84;100303.16;5588192;31;34551;-58
2022/04/26 13:16:14;;;;;;;5.55;2.92;;;;;;;19.48;43.10;100297.59;5587070;31;33686;-58
2022/04/26 13:19:17;;;;;;;4.55;2.60;;;;;;;19.64;42.08;100296.94;5587941;31;33719;-58
2022/04/26 13:22:19;;;;;;;6.57;2.97;;;;;;;19.75;42.81;100294.53;5586762;31;35032;-59
2022/04/26 13:25:22;;;;;;;5.32;3.08;;;;;;;19.89;45.03;100298.44;5588229;31;33795;-59
2022/04/26 13:28:24;;;;;;;4.90;2.85;;;;;;;19.89;41.97;100300.38;5587580;31;33801;-59
2022/04/26 13:31:27;;;;;;;5.82;3.30;;;;;;;19.87;43.40;100295.28;5587655;31;34177;-59
2022/04/26 13:34:29;;;;;;;7.70;3.15;;;;;;;19.88;41.76;100294.16;5587353;31;34465;-59
2022/04/26 13:37:46;;;;;;;5.07;2.80;;;;;;;19.71;42.79;100300.66;5586878;31;33622;-59
2022/04/26 13:40:50;;;;;;;9.15;2.87;;;;;;;19.71;43.22;100303.38;5585669;31;33760;-58
2022/04/26 13:43:52;;;;;;;7.12;3.12;;;;;;;19.73;44.83;100294.06;5587411;31;33806;-58
2022/04/26 13:46:55;;;;;;;9.35;3.45;;;;;;;19.74;45.86;100292.97;5586536;31;33213;-59
2022/04/26 13:49:59;;;;;;;6.10;3.12;;;;;;;19.63;41.21;100301.56;5587235;31;34407;-59
2022/04/26 13:53:01;;;;;;;10.25;3.47;;;;;;;19.54;41.33;100291.94;5573764;31;33746;-58
2022/04/26 13:56:06;;;;;;;5.07;3.45;;;;;;;19.48;41.26;100294.87;5580440;31;33353;-58
2022/04/26 13:59:09;;;;;;;5.93;3.43;;;;;;;19.52;41.94;100296.91;5581793;31;33764;-58
2022/04/26 14:02:12;;;;;;;5.82;3.70;;;;;;;19.42;41.66;100290.03;5583356;31;33142;-59
2022/04/26 14:05:16;;;;;;;6.07;3.05;;;;;;;19.39;41.27;100296.94;5585365;31;34171;-59
2022/04/26 14:08:18;;;;;;;13.38;3.80;;;;;;;19.23;41.50;100294.09;5582604;31;33798;-59
2022/04/26 14:11:21;;;;;;;7.37;3.83;;;;;;;19.18;41.44;100293.56;5584182;31;34364;-58
2022/04/26 14:24:28;;;;;;;4.45;2.90;;;;;;;19.02;43.25;100298.88;5566406;32;33810;-59
2022/04/26 14:27:31;;;;;;;5.30;3.25;;;;;;;19.03;42.39;100297.72;5566995;31;34401;-58
2022/04/26 14:30:33;;;;;;;6.97;3.22;;;;;;;19.03;42.12;100289.56;5578282;31;33332;-59
2022/04/26 14:33:42;;;;;;;6.97;3.50;;;;;;;19.08;42.07;100288.56;5578239;31;33783;-59
2022/04/26 14:36:44;;;;;;;7.18;3.60;;;;;;;19.23;42.67;100291.37;5584544;31;33217;-58
2022/04/26 14:39:56;;;;;;;4.43;3.55;;;;;;;19.19;43.49;100286.97;5571704;31;34274;-58
2022/04/26 14:42:58;;;;;;;5.32;3.12;;;;;;;19.09;41.85;100292.88;5588229;31;34350;-58
2022/04/26 14:46:01;;;;;;;4.35;3.05;;;;;;;19.06;43.67;100293.53;5584374;31;34279;-58
2022/04/26 14:49:04;;;;;;;4.35;3.15;;;;;;;19.20;43.98;100296.72;5569352;31;33335;-59
2022/04/26 14:52:06;;;;;;;4.45;3.37;;;;;;;19.10;43.39;100297.16;5568896;32;33742;-59
2022/04/26 14:55:29;;;;;;;5.03;2.50;;;;;;;19.08;43.65;100291.28;5576734;31;34516;-59
2022/04/26 14:58:33;;;;;;;6.43;3.28;;;;;;;19.15;43.18;100283.38;5586514;31;33444;-59
2022/04/26 15:01:35;;;;;;;5.68;2.87;;;;;;;19.21;41.04;100282.81;5584674;31;33844;-58
2022/04/26 15:04:39;;;;;;;4.68;3.10;;;;;;;19.21;42.19;100285.53;5588081;31;34489;-59
2022/04/26 15:11:02;;;;;;;3.53;2.70;;;;;;;19.23;41.46;100277.00;5587748;31;34085;-59
2022/04/26 15:17:25;;;;;;;4.25;2.83;;;;;;;19.19;45.75;100287.78;5574303;31;34217;-58
2022/04/26 15:20:28;;;;;;;12.35;3.50;;;;;;;19.10;42.38;100278.94;5575131;31;34078;-58
2022/04/26 15:23:30;;;;;;;5.60;3.03;;;;;;;19.11;43.04;100280.53;5588434;31;33891;-59
2022/04/26 15:26:34;;;;;;;6.30;3.12;;;;;;;19.19;44.78;100276.91;5570334;31;34536;-59
2022/04/26 15:29:36;;;;;;;3.75;2.70;;;;;;;19.24;46.21;100276.69;5574798;31;34387;-58
2022/04/26 15:32:39;;;;;;;7.30;3.08;;;;;;;19.19;43.57;100273.41;5584783;31;34373;-59
2022/04/26 15:35:42;;;;;;;4.75;3.00;;;;;;;19.15;44.16;100269.78;5588555;31;33758;-58
2022/04/26 15:38:45;;;;;;;4.07;3.10;;;;;;;19.17;44.49;100265.59;5588147;31;34446;-59
2022/04/26 15:41:48;;;;;;;3.70;2.95;;;;;;;19.09;43.79;100260.28;5585436;31;34369;-58
2022/04/26 15:44:51;;;;;;;4.93;2.90;;;;;;;19.05;42.47;100257.44;5568900;31;33676;-58
2022/04/26 15:47:53;;;;;;;7.47;2.92;;;;;;;19.03;41.24;100256.97;5582634;31;33267;-59
2022/04/26 15:50:56;;;;;;;9.60;3.10;;;;;;;19.00;41.34;100254.94;5588575;31;33753;-59
2022/04/26 15:54:00;;;;;;;5.28;2.80;;;;;;;18.97;43.72;100258.31;5580446;31;33669;-59
2022/04/26 15:57:03;;;;;;;4.22;3.00;;;;;;;18.96;44.12;100267.63;5582707;31;33682;-59
2022/04/26 16:00:06;;;;;;;4.43;3.05;;;;;;;18.97;41.87;100264.59;5579427;31;34328;-58
2022/04/26 16:03:09;;;;;;;5.32;2.75;;;;;;;18.93;41.72;100265.59;5572068;31;34293;-59
2022/04/26 16:06:12;;;;;;;7.00;2.62;;;;;;;18.87;43.19;100262.28;5583446;31;33725;-59
